createdAt,value
2023-03-17T00:01:33.403Z,101391.34
2023-03-17T00:05:39.139Z,101383.41
2023-03-17T00:09:40.720Z,101370.97
2023-03-17T00:13:43.489Z,101371.94
2023-03-17T00:17:45.800Z,101364.00
2023-03-17T00:21:47.888Z,101367.53
2023-03-17T00:25:49.849Z,101352.50
2023-03-17T00:29:51.683Z,101362.19
2023-03-17T00:33:55.308Z,101360.47
2023-03-17T00:37:57.860Z,101351.59
2023-03-17T00:41:59.649Z,101339.22
2023-03-17T00:46:01.385Z,101325.13
2023-03-17T00:50:02.936Z,101330.41
2023-03-17T00:54:04.533Z,101327.75
2023-03-17T00:58:13.823Z,101319.81
2023-03-17T01:02:15.317Z,101309.22
2023-03-17T01:06:17.576Z,101293.31
2023-03-17T01:10:25.684Z,101295.09
2023-03-17T01:14:27.849Z,101296.81
2023-03-17T01:18:29.325Z,101303.91
2023-03-17T01:22:30.982Z,101298.59
2023-03-17T01:26:32.595Z,101310.09
2023-03-17T01:30:39.956Z,101310.94
2023-03-17T01:34:41.393Z,101294.19
2023-03-17T01:38:42.833Z,101300.34
2023-03-17T01:42:49.234Z,101297.72
2023-03-17T01:46:50.711Z,101275.66
2023-03-17T01:50:53.769Z,101286.22
2023-03-17T01:55:02.359Z,101293.25
2023-03-17T01:59:08.287Z,101277.41
2023-03-17T02:03:10.424Z,101271.25
2023-03-17T02:07:12.926Z,101264.16
2023-03-17T02:11:16.959Z,101253.56
2023-03-17T02:15:19.079Z,101256.19
2023-03-17T02:19:20.943Z,101245.59
2023-03-17T02:23:24.668Z,101245.59
2023-03-17T02:27:33.781Z,101259.66
2023-03-17T02:31:35.600Z,101262.34
2023-03-17T02:35:37.450Z,101237.69
2023-03-17T02:39:38.973Z,101241.19
2023-03-17T02:43:41.393Z,101231.47
2023-03-17T02:47:42.950Z,101227.06
2023-03-17T02:51:45.244Z,101232.34
2023-03-17T02:55:46.708Z,101220.00
2023-03-17T02:59:48.268Z,101230.59
2023-03-17T03:03:49.700Z,101233.16
2023-03-17T03:07:52.214Z,101246.50
2023-03-17T03:11:53.705Z,101237.63
2023-03-17T03:15:55.172Z,101235.00
2023-03-17T03:19:56.761Z,101222.66
2023-03-17T03:23:58.284Z,101221.78
2023-03-17T03:27:59.697Z,101226.09
2023-03-17T03:32:01.555Z,101216.47
2023-03-17T03:36:03.121Z,101220.00
2023-03-17T03:40:07.365Z,101224.34
2023-03-17T03:44:08.805Z,101212.06
2023-03-17T03:48:11.202Z,101215.56
2023-03-17T03:52:12.665Z,101217.25
2023-03-17T03:56:14.597Z,101217.31
2023-03-17T04:00:17.624Z,101215.53
2023-03-17T04:04:19.055Z,101212.97
2023-03-17T04:08:20.882Z,101174.13
2023-03-17T04:12:22.415Z,101159.97
2023-03-17T04:16:23.959Z,101179.41
2023-03-17T04:20:25.511Z,101182.94
2023-03-17T04:24:27.698Z,101175.63
2023-03-17T04:28:29.150Z,101185.59
2023-03-17T04:32:30.721Z,101185.53
2023-03-17T04:36:32.755Z,101180.25
2023-03-17T04:40:34.305Z,101155.41
2023-03-17T04:44:36.473Z,101157.28
2023-03-17T04:48:37.987Z,101172.16
2023-03-17T04:52:39.811Z,101171.34
2023-03-17T04:56:41.290Z,101182.03
2023-03-17T05:00:42.766Z,101184.47
2023-03-17T05:04:45.519Z,101182.03
2023-03-17T05:08:47.185Z,101195.25
2023-03-17T05:12:48.620Z,101185.44
2023-03-17T05:16:50.867Z,101185.56
2023-03-17T05:20:52.461Z,101172.34
2023-03-17T05:24:53.977Z,101179.41
2023-03-17T05:28:55.469Z,101188.97
2023-03-17T05:32:57.266Z,101173.09
2023-03-17T05:36:58.743Z,101176.50
2023-03-17T05:41:00.192Z,101176.69
2023-03-17T05:45:01.686Z,101143.22
2023-03-17T05:49:03.744Z,101128.94
2023-03-17T05:53:06.290Z,101095.50
2023-03-17T05:57:08.094Z,101088.47
2023-03-17T06:01:09.574Z,101087.66
2023-03-17T06:05:11.491Z,101047.09
2023-03-17T06:09:12.931Z,101046.19
2023-03-17T06:13:15.370Z,101097.25
2023-03-17T06:17:17.019Z,101110.50
2023-03-17T06:21:18.440Z,101102.63
2023-03-17T06:25:19.847Z,101119.41
2023-03-17T06:29:21.582Z,101099.13
2023-03-17T06:33:23.302Z,101084.13
2023-03-17T06:37:25.099Z,101092.06
2023-03-17T06:41:27.238Z,101090.31
2023-03-17T06:45:29.317Z,101074.41
2023-03-17T06:49:31.187Z,101069.94
2023-03-17T06:53:32.648Z,101081.44
2023-03-17T06:57:34.779Z,101073.47
2023-03-17T07:01:37.692Z,101069.94
2023-03-17T07:05:39.338Z,101071.75
2023-03-17T07:09:40.777Z,101059.41
2023-03-17T07:13:42.215Z,101069.03
2023-03-17T07:17:43.624Z,101069.84
2023-03-17T07:21:46.950Z,101072.63
2023-03-17T07:25:49.343Z,101074.41
2023-03-17T07:29:51.736Z,101057.69
2023-03-17T07:33:54.837Z,101057.53
2023-03-17T07:37:57.374Z,101066.34
2023-03-17T07:41:58.812Z,101070.84
2023-03-17T07:46:00.292Z,101065.53
2023-03-17T07:50:01.842Z,101070.78
2023-03-17T07:54:04.091Z,101069.84
2023-03-17T07:58:06.633Z,101075.06
2023-03-17T08:02:14.112Z,101077.81
2023-03-17T08:06:15.617Z,101069.69
2023-03-17T08:10:18.144Z,101064.16
2023-03-17T08:14:19.636Z,101073.81
2023-03-17T08:18:21.229Z,101078.53
2023-03-17T08:22:23.772Z,101091.00
2023-03-17T08:26:25.466Z,101081.28
2023-03-17T08:30:27.400Z,101082.94
2023-03-17T08:34:29.173Z,101076.72
2023-03-17T08:38:31.598Z,101069.72
2023-03-17T08:42:32.994Z,101069.97
2023-03-17T08:46:35.106Z,101068.38
2023-03-17T08:50:37.276Z,101059.47
2023-03-17T08:54:39.013Z,101059.72
2023-03-17T08:58:40.757Z,101052.78
2023-03-17T09:02:43.555Z,101049.13
2023-03-17T09:07:01.719Z,101033.84
2023-03-17T09:11:05.399Z,101020.41
2023-03-17T09:15:07.679Z,101011.50
2023-03-17T09:19:09.219Z,101005.72
2023-03-17T09:23:11.658Z,101002.44
2023-03-17T09:27:13.513Z,100994.88
2023-03-17T09:31:15.610Z,101001.03
2023-03-17T09:35:17.170Z,100997.69
2023-03-17T09:39:18.887Z,100992.22
2023-03-17T09:43:41.433Z,101001.09
2023-03-17T09:47:58.212Z,100985.28
2023-03-17T09:51:59.778Z,100992.84
2023-03-17T09:56:12.276Z,100987.53
2023-03-17T10:00:18.370Z,100986.25
2023-03-17T10:04:20.172Z,100987.84
2023-03-17T10:08:35.653Z,100989.59
2023-03-17T10:12:39.719Z,100988.22
2023-03-17T10:16:58.066Z,100981.78
2023-03-17T10:21:07.072Z,100991.84
2023-03-17T10:25:16.661Z,100975.63
2023-03-17T10:29:23.744Z,100971.53
2023-03-17T10:33:26.494Z,100972.25
2023-03-17T10:37:29.677Z,100971.84
2023-03-17T10:41:53.389Z,100968.66
2023-03-17T10:46:03.517Z,100960.06
2023-03-17T10:50:28.863Z,100957.06
2023-03-17T10:54:35.644Z,100951.19
2023-03-17T10:58:45.278Z,100952.19
2023-03-17T11:02:57.928Z,100952.38
2023-03-17T11:07:06.694Z,100950.31
2023-03-17T11:11:22.481Z,100937.72
2023-03-17T11:15:31.645Z,100926.69
2023-03-17T11:20:02.475Z,100914.31
2023-03-17T11:24:10.394Z,100916.81
2023-03-17T11:28:33.475Z,100921.22
2023-03-17T11:32:56.402Z,100927.50
2023-03-17T11:37:13.171Z,100923.31
2023-03-17T11:41:20.572Z,100919.91
2023-03-17T11:45:42.256Z,100915.84
2023-03-17T11:49:53.892Z,100914.81
2023-03-17T11:54:06.709Z,100907.47
2023-03-17T11:58:16.297Z,100907.59
2023-03-17T12:02:31.045Z,100906.31
2023-03-17T12:06:35.642Z,100905.31
2023-03-17T12:10:47.453Z,100905.56
2023-03-17T12:14:53.263Z,100905.84
2023-03-17T12:19:10.104Z,100907.41
2023-03-17T12:23:29.902Z,100913.06
2023-03-17T12:27:42.657Z,100910.06
2023-03-17T12:31:52.368Z,100903.59
2023-03-17T12:35:54.045Z,100912.84
2023-03-17T12:40:14.944Z,100896.25
2023-03-17T12:44:54.284Z,100901.25
2023-03-17T12:49:27.054Z,100911.72
2023-03-17T12:53:31.352Z,100903.28
2023-03-17T12:57:46.235Z,100905.63
2023-03-17T13:02:16.116Z,100899.88
2023-03-17T13:06:21.273Z,100892.88
2023-03-17T13:10:42.616Z,100885.22
2023-03-17T13:14:47.252Z,100880.56
2023-03-17T13:18:49.887Z,100875.38
2023-03-17T13:23:00.374Z,100875.56
2023-03-17T13:27:04.502Z,100870.63
2023-03-17T13:31:31.392Z,100866.84
2023-03-17T13:35:41.724Z,100859.72
2023-03-17T13:39:51.990Z,100854.81
2023-03-17T13:44:09.944Z,100851.41
2023-03-17T13:48:30.826Z,100858.75
2023-03-17T13:52:39.024Z,100854.53
2023-03-17T13:56:40.417Z,100859.13
2023-03-17T14:00:48.883Z,100844.81
2023-03-17T14:04:58.796Z,100856.72
2023-03-17T14:09:09.252Z,100850.59
2023-03-17T14:13:27.792Z,100848.19
2023-03-17T14:17:34.034Z,100842.03
2023-03-17T14:21:36.456Z,100842.06
2023-03-17T14:25:39.852Z,100837.03
2023-03-17T14:29:41.326Z,100842.22
2023-03-17T14:33:42.993Z,100845.28
2023-03-17T14:37:45.389Z,100836.16
2023-03-17T14:41:57.232Z,100830.56
2023-03-17T14:46:07.531Z,100812.69
2023-03-17T14:50:24.756Z,100806.66
2023-03-17T14:54:31.174Z,100814.38
2023-03-17T14:58:44.370Z,100815.69
2023-03-17T15:02:56.185Z,100812.84
2023-03-17T15:07:03.618Z,100812.13
2023-03-17T15:11:06.486Z,100803.09
2023-03-17T15:15:25.748Z,100802.63
2023-03-17T15:19:44.165Z,100806.72
2023-03-17T15:23:47.766Z,100822.38
2023-03-17T15:27:49.379Z,100828.69
2023-03-17T15:31:51.064Z,100824.00
2023-03-17T15:35:52.622Z,100819.63
2023-03-17T15:39:55.764Z,100817.50
2023-03-17T15:43:57.201Z,100827.75
2023-03-17T15:47:58.720Z,100832.16
2023-03-17T15:52:00.436Z,100818.81
2023-03-17T15:56:01.840Z,100826.06
2023-03-17T16:00:04.059Z,100830.00
2023-03-17T16:04:14.330Z,100849.00
2023-03-17T16:08:17.770Z,100849.03
2023-03-17T16:12:19.285Z,100841.13
2023-03-17T16:16:28.720Z,100837.22
2023-03-17T16:20:42.604Z,100833.59
2023-03-17T16:24:44.622Z,100836.91
2023-03-17T16:28:47.721Z,100840.06
2023-03-17T16:32:49.813Z,100839.69
2023-03-17T16:36:51.337Z,100835.94
2023-03-17T16:41:00.069Z,100842.75
2023-03-17T16:45:01.609Z,100843.44
2023-03-17T16:49:04.139Z,100844.03
2023-03-17T16:53:05.607Z,100845.13
2023-03-17T16:57:11.614Z,100842.25
2023-03-17T17:01:20.225Z,100840.34
2023-03-17T17:05:24.734Z,100842.44
2023-03-17T17:09:26.119Z,100844.00
2023-03-17T17:13:27.738Z,100847.38
2023-03-17T17:17:29.854Z,100828.44
2023-03-17T17:21:32.952Z,100847.63
2023-03-17T17:25:34.462Z,100851.78
2023-03-17T17:29:36.199Z,100859.69
2023-03-17T17:33:38.478Z,100846.59
2023-03-17T17:37:40.111Z,100853.53
2023-03-17T17:41:41.540Z,100849.44
2023-03-17T17:45:43.044Z,100849.53
2023-03-17T17:49:44.611Z,100850.97
2023-03-17T17:53:46.034Z,100841.16
2023-03-17T17:57:47.501Z,100836.31
2023-03-17T18:01:49.322Z,100835.44
2023-03-17T18:05:55.180Z,100839.19
2023-03-17T18:09:56.706Z,100831.03
2023-03-17T18:13:58.157Z,100821.13
2023-03-17T18:17:59.645Z,100816.84
2023-03-17T18:22:01.094Z,100853.63
2023-03-17T18:26:03.669Z,100858.16
2023-03-17T18:30:07.576Z,100874.25
2023-03-17T18:34:21.741Z,100871.81
2023-03-17T18:38:23.230Z,100879.06
2023-03-17T18:42:24.736Z,100879.38
2023-03-17T18:46:26.240Z,100870.97
2023-03-17T18:50:27.705Z,100869.78
2023-03-17T18:54:29.204Z,100874.16
2023-03-17T18:58:30.761Z,100869.94
2023-03-17T19:02:32.196Z,100854.50
2023-03-17T19:06:35.285Z,100859.22
2023-03-17T19:10:36.979Z,100848.81
2023-03-17T19:14:41.405Z,100848.81
2023-03-17T19:18:42.943Z,100843.16
2023-03-17T19:22:44.531Z,100834.69
2023-03-17T19:26:46.063Z,100836.97
2023-03-17T19:30:47.839Z,100830.66
2023-03-17T19:34:49.266Z,100836.03
2023-03-17T19:38:51.088Z,100835.22
2023-03-17T19:42:52.526Z,100835.06
2023-03-17T19:46:54.150Z,100833.50
2023-03-17T19:50:55.596Z,100831.66
2023-03-17T19:54:57.775Z,100819.53
2023-03-17T19:58:59.781Z,100831.22
2023-03-17T20:03:01.219Z,100833.00
2023-03-17T20:07:02.760Z,100828.50
2023-03-17T20:11:05.893Z,100815.59
2023-03-17T20:15:08.660Z,100826.59
2023-03-17T20:19:10.084Z,100828.59
2023-03-17T20:23:11.531Z,100818.72
2023-03-17T20:27:15.227Z,100826.09
2023-03-17T20:31:17.893Z,100829.16
2023-03-17T20:35:20.831Z,100827.09
2023-03-17T20:39:22.266Z,100820.72
2023-03-17T20:43:23.771Z,100817.25
2023-03-17T20:47:26.543Z,100816.25
2023-03-17T20:51:28.048Z,100827.34
2023-03-17T20:55:30.747Z,100824.41
2023-03-17T20:59:33.539Z,100829.47
2023-03-17T21:03:35.074Z,100806.94
2023-03-17T21:07:36.572Z,100807.97
2023-03-17T21:11:38.065Z,100810.22
2023-03-17T21:15:40.045Z,100804.69
2023-03-17T21:19:42.106Z,100804.13
2023-03-17T21:23:44.313Z,100804.88
2023-03-17T21:27:46.007Z,100802.84
2023-03-17T21:31:47.580Z,100800.13
2023-03-17T21:35:49.381Z,100789.59
2023-03-17T21:39:50.825Z,100787.28
2023-03-17T21:43:52.251Z,100782.69
2023-03-17T21:47:54.205Z,100780.19
2023-03-17T21:51:55.649Z,100771.00
2023-03-17T21:55:57.817Z,100768.53
2023-03-17T21:59:59.314Z,100768.66
2023-03-17T22:04:01.169Z,100769.38
2023-03-17T22:08:03.167Z,100768.75
2023-03-17T22:12:05.292Z,100755.88
2023-03-17T22:16:07.663Z,100755.84
2023-03-17T22:20:10.545Z,100751.91
2023-03-17T22:24:12.642Z,100756.75
2023-03-17T22:28:14.309Z,100748.13
2023-03-17T22:32:15.938Z,100751.53
2023-03-17T22:36:17.837Z,100748.50
2023-03-17T22:40:19.378Z,100760.53
2023-03-17T22:44:20.916Z,100759.97
2023-03-17T22:48:22.369Z,100762.00
2023-03-17T22:52:23.899Z,100760.88
2023-03-17T22:56:26.446Z,100771.53
2023-03-17T23:00:27.858Z,100770.22
2023-03-17T23:04:29.307Z,100763.34
2023-03-17T23:08:34.969Z,100764.41
2023-03-17T23:12:37.914Z,100757.19
2023-03-17T23:16:39.401Z,100761.88
2023-03-17T23:20:41.799Z,100753.63
2023-03-17T23:24:43.547Z,100760.66
2023-03-17T23:28:46.234Z,100758.00
2023-03-17T23:32:49.109Z,100759.50
2023-03-17T23:36:50.571Z,100741.53
2023-03-17T23:40:56.773Z,100739.84
2023-03-17T23:44:59.204Z,100750.94
2023-03-17T23:49:00.722Z,100751.75
2023-03-17T23:53:02.553Z,100756.03
2023-03-17T23:57:04.151Z,100739.50
